Pocatello, ID (83202)

12:38 PM MST on December 05, 2016 (GMT -0700)
Bonneville Park | | Change Station

Elev 4606 ft 42.87 °N, 112.43 °W | Updated 5 seconds ago

Mostly Cloudy
Mostly Cloudy
25.2 °F
Feels Like 18 °F
N
5.8
Wind Variable Wind from SSE

Today
High -- | Low -- °F
--% Chance of Precip.
Yesterday
High -- | Low -- °F
Precip. -- in
Pressure 30.14 in
Visibility 10.0 miles
Clouds Mostly Cloudy 1900 ft
Windchill 18 °F
Dew Point 12 °F
Humidity 57%
Rainfall 0.00 in
Snow Depth Not available.
7:45 AM 4:55 PM
Waxing Crescent, 34% visible
METAR KPIH 051853Z 23019KT 10SM BKN019 M05/M09 A3006 RMK AO2 SLP206 T10501089 $
Pressure 30.14 in
Visibility 10.0 miles
Clouds Mostly Cloudy 1900 ft
Windchill 18 °F
Dew Point 12 °F
Humidity 57%
Rainfall 0.00 in
Snow Depth Not available.
7:45 AM 4:55 PM
Waxing Crescent, 34% visible
METAR KPIH 051853Z 23019KT 10SM BKN019 M05/M09 A3006 RMK AO2 SLP206 T10501089 $

10-Day Weather Forecast

Almanac

Astronomy

Dec. 05, 2016 Rise Set
Actual Time
Civil Twilight
Nautical Twilight
Astronomical Twilight
Moon
Length of Visible Light
Length of Day
Tomorrow will be .
, % of the Moon is Illuminated

Today's Extremes

State Highs State Lows

Community

WunderPhotos

Upload Photos

1,955,852 photos uploaded!

WunderBlog® & News

Nearby

Air Quality

  Air Quality AQ Index Pollutant
Not available.

Snow Depth

Station Depth Elevation

Earthquake Activity

City Distance Mag. Time & Date
Minimum magnitude displayed is 2.5.

Coastal Water Temperatures

Place Temperature

Stations

Nearby Weather Stations

Station Location Temp. Windchill Dew Point Humidity Wind Precip. Elev Updated Type
                   

Watches & Warnings

There are currently no watches in effect.